createdAt,value
2022-12-19T00:00:14.772Z,40
2022-12-19T00:01:12.870Z,38
2022-12-19T00:02:12.998Z,42
2022-12-19T00:03:12.984Z,44
2022-12-19T00:04:12.867Z,39
2022-12-19T00:05:12.868Z,41
2022-12-19T00:06:12.882Z,40
2022-12-19T00:07:12.863Z,42
2022-12-19T00:08:16.866Z,37
2022-12-19T00:09:12.909Z,36
2022-12-19T00:10:12.869Z,44
2022-12-19T00:11:12.876Z,41
2022-12-19T00:12:18.866Z,40
2022-12-19T00:13:13.026Z,42
2022-12-19T00:14:12.871Z,36
2022-12-19T00:15:12.879Z,39
2022-12-19T00:16:12.925Z,41
2022-12-19T00:17:12.856Z,38
2022-12-19T00:18:12.852Z,42
2022-12-19T00:19:12.853Z,44
2022-12-19T00:20:12.858Z,43
2022-12-19T00:21:12.879Z,42
2022-12-19T00:22:12.861Z,43
2022-12-19T00:23:12.858Z,39
2022-12-19T00:24:21.715Z,40
2022-12-19T00:25:12.859Z,43
2022-12-19T00:26:12.867Z,37
2022-12-19T00:27:12.974Z,41
2022-12-19T00:28:12.975Z,46
2022-12-19T00:29:14.442Z,41
2022-12-19T00:30:13.027Z,42
2022-12-19T00:31:13.120Z,41
2022-12-19T00:32:13.701Z,48
2022-12-19T00:33:12.917Z,40
2022-12-19T00:34:12.946Z,45
2022-12-19T00:35:12.859Z,44
2022-12-19T00:36:12.872Z,43
2022-12-19T00:37:12.857Z,39
2022-12-19T00:38:12.877Z,41
2022-12-19T00:39:12.853Z,41
2022-12-19T00:40:12.861Z,44
2022-12-19T00:41:12.853Z,47
2022-12-19T00:42:12.853Z,42
2022-12-19T00:43:12.849Z,42
2022-12-19T00:44:12.987Z,46
2022-12-19T00:45:12.864Z,43
2022-12-19T00:46:12.905Z,42
2022-12-19T00:47:12.854Z,39
2022-12-19T00:48:12.851Z,42
2022-12-19T00:49:12.879Z,41
2022-12-19T00:50:12.877Z,42
2022-12-19T00:51:12.863Z,43
2022-12-19T00:52:12.853Z,44
2022-12-19T00:53:12.856Z,40
2022-12-19T00:54:12.860Z,40
2022-12-19T00:55:18.581Z,43
2022-12-19T00:56:12.862Z,45
2022-12-19T00:57:12.853Z,44
2022-12-19T00:58:12.857Z,42
2022-12-19T00:59:12.866Z,43
2022-12-19T01:00:12.860Z,44
2022-12-19T01:01:12.953Z,43
2022-12-19T01:02:12.973Z,45
2022-12-19T01:03:12.942Z,42
2022-12-19T01:04:28.239Z,43
2022-12-19T01:05:12.849Z,46
2022-12-19T01:06:12.863Z,44
2022-12-19T01:07:12.849Z,44
2022-12-19T01:08:12.840Z,45
2022-12-19T01:09:12.879Z,41
2022-12-19T01:10:12.848Z,42
2022-12-19T01:11:12.856Z,40
2022-12-19T01:12:12.844Z,37
2022-12-19T01:13:12.844Z,36
2022-12-19T01:14:17.393Z,40
2022-12-19T01:15:12.988Z,44
2022-12-19T01:16:12.914Z,48
2022-12-19T01:17:12.852Z,46
2022-12-19T01:18:12.849Z,44
2022-12-19T01:19:12.844Z,35
2022-12-19T01:20:12.858Z,40
2022-12-19T01:21:12.861Z,44
2022-12-19T01:22:12.851Z,44
2022-12-19T01:23:12.851Z,47
2022-12-19T01:24:12.933Z,44
2022-12-19T01:25:12.845Z,44
2022-12-19T01:26:12.863Z,47
2022-12-19T01:27:12.857Z,47
2022-12-19T01:28:12.846Z,46
2022-12-19T01:29:12.846Z,45
2022-12-19T01:30:12.834Z,42
2022-12-19T01:31:12.895Z,46
2022-12-19T01:32:12.842Z,41
2022-12-19T01:33:12.838Z,43
2022-12-19T01:34:12.853Z,43
2022-12-19T01:35:21.098Z,42
2022-12-19T01:36:12.858Z,48
2022-12-19T01:37:12.839Z,40
2022-12-19T01:38:12.856Z,42
2022-12-19T01:39:12.844Z,45
2022-12-19T01:40:12.837Z,49
2022-12-19T01:41:12.849Z,40
2022-12-19T01:42:12.846Z,47
2022-12-19T01:43:12.860Z,48
2022-12-19T01:44:12.850Z,44
2022-12-19T01:45:14.116Z,39
2022-12-19T01:46:13.002Z,46
2022-12-19T01:47:12.851Z,39
2022-12-19T01:48:12.843Z,43
2022-12-19T01:49:12.840Z,48
2022-12-19T01:50:12.835Z,43
2022-12-19T01:51:12.856Z,45
2022-12-19T01:52:18.279Z,41
2022-12-19T01:53:12.849Z,34
2022-12-19T01:54:12.841Z,42
2022-12-19T01:55:12.861Z,40
2022-12-19T01:56:12.817Z,39
2022-12-19T01:57:12.860Z,44
2022-12-19T01:58:12.808Z,37
2022-12-19T01:59:12.802Z,44
2022-12-19T02:00:12.868Z,39
2022-12-19T02:01:12.887Z,39
2022-12-19T02:02:12.948Z,41
2022-12-19T02:03:13.111Z,43
2022-12-19T02:04:12.811Z,42
2022-12-19T02:05:12.808Z,39
2022-12-19T02:06:12.805Z,39
2022-12-19T02:07:15.939Z,37
2022-12-19T02:08:12.821Z,36
2022-12-19T02:09:12.809Z,36
2022-12-19T02:10:12.799Z,38
2022-12-19T02:11:12.829Z,35
2022-12-19T02:12:12.836Z,37
2022-12-19T02:13:12.801Z,41
2022-12-19T02:14:12.812Z,40
2022-12-19T02:15:12.813Z,40
2022-12-19T02:16:12.840Z,41
2022-12-19T02:17:12.938Z,42
2022-12-19T02:18:12.802Z,40
2022-12-19T02:19:12.820Z,38
2022-12-19T02:20:12.855Z,37
2022-12-19T02:21:12.849Z,40
2022-12-19T02:22:18.804Z,35
2022-12-19T02:23:12.812Z,40
2022-12-19T02:24:12.828Z,38
2022-12-19T02:25:12.818Z,37
2022-12-19T02:26:12.827Z,39
2022-12-19T02:27:12.864Z,40
2022-12-19T02:28:12.808Z,40
2022-12-19T02:29:12.805Z,38
2022-12-19T02:30:12.816Z,36
2022-12-19T02:31:17.438Z,42
2022-12-19T02:32:12.824Z,38
2022-12-19T02:33:12.801Z,41
2022-12-19T02:34:12.820Z,41
2022-12-19T02:35:12.830Z,37
2022-12-19T02:36:12.836Z,35
2022-12-19T02:37:12.820Z,39
2022-12-19T02:38:13.364Z,40
2022-12-19T02:39:12.824Z,39
2022-12-19T02:40:12.839Z,40
2022-12-19T02:41:12.824Z,40
2022-12-19T02:42:12.833Z,38
2022-12-19T02:43:12.828Z,38
2022-12-19T02:44:12.822Z,43
2022-12-19T02:45:12.835Z,38
2022-12-19T02:46:12.892Z,37
2022-12-19T02:47:12.867Z,41
2022-12-19T02:48:17.625Z,39
2022-12-19T02:49:12.825Z,43
2022-12-19T02:50:12.814Z,39
2022-12-19T02:51:12.858Z,40
2022-12-19T02:52:12.833Z,41
2022-12-19T02:53:12.825Z,44
2022-12-19T02:54:12.841Z,42
2022-12-19T02:55:12.815Z,35
2022-12-19T02:56:12.829Z,38
2022-12-19T02:57:12.823Z,42
2022-12-19T02:58:12.820Z,42
2022-12-19T02:59:12.823Z,40
2022-12-19T03:00:12.831Z,37
2022-12-19T03:01:12.926Z,41
2022-12-19T03:02:13.059Z,45
2022-12-19T03:03:12.896Z,42
2022-12-19T03:04:12.830Z,38
2022-12-19T03:05:12.850Z,40
2022-12-19T03:06:12.833Z,40
2022-12-19T03:07:12.825Z,42
2022-12-19T03:08:12.821Z,40
2022-12-19T03:09:12.854Z,41
2022-12-19T03:10:12.818Z,41
2022-12-19T03:11:12.838Z,44
2022-12-19T03:12:17.117Z,38
2022-12-19T03:13:12.820Z,38
2022-12-19T03:14:12.824Z,36
2022-12-19T03:15:12.829Z,38
2022-12-19T03:16:12.886Z,38
2022-12-19T03:17:12.851Z,36
2022-12-19T03:18:12.826Z,40
2022-12-19T03:19:12.948Z,39
2022-12-19T03:20:12.839Z,40
2022-12-19T03:21:12.840Z,43
2022-12-19T03:22:12.821Z,36
2022-12-19T03:23:12.827Z,40
2022-12-19T03:24:12.916Z,41
2022-12-19T03:25:12.841Z,42
2022-12-19T03:26:12.851Z,43
2022-12-19T03:27:12.865Z,39
2022-12-19T03:28:12.829Z,41
2022-12-19T03:29:12.908Z,43
2022-12-19T03:30:12.831Z,42
2022-12-19T03:31:12.940Z,38
2022-12-19T03:32:12.840Z,52
2022-12-19T03:33:12.827Z,50
2022-12-19T03:34:12.844Z,50
2022-12-19T03:35:12.831Z,46
2022-12-19T03:36:12.841Z,47
2022-12-19T03:37:12.824Z,45
2022-12-19T03:38:12.848Z,49
2022-12-19T03:39:12.836Z,42
2022-12-19T03:40:12.835Z,42
2022-12-19T03:41:12.853Z,41
2022-12-19T03:42:12.836Z,40
2022-12-19T03:43:12.826Z,42
2022-12-19T03:44:12.848Z,39
2022-12-19T03:45:12.832Z,37
2022-12-19T03:46:12.871Z,42
2022-12-19T03:47:12.851Z,38
2022-12-19T03:48:12.826Z,41
2022-12-19T03:49:12.826Z,36
2022-12-19T03:50:12.961Z,40
2022-12-19T03:51:12.869Z,38
2022-12-19T03:52:12.816Z,43
2022-12-19T03:53:12.835Z,35
2022-12-19T03:54:12.829Z,38
2022-12-19T03:55:12.834Z,36
2022-12-19T03:56:12.845Z,35
2022-12-19T03:57:12.838Z,34
2022-12-19T03:58:12.882Z,40
2022-12-19T03:59:12.830Z,33
2022-12-19T04:00:12.838Z,40
2022-12-19T04:01:12.868Z,41
2022-12-19T04:02:12.927Z,37
2022-12-19T04:03:12.940Z,39
2022-12-19T04:04:12.832Z,39
2022-12-19T04:05:12.837Z,39
2022-12-19T04:06:12.834Z,44
2022-12-19T04:07:12.834Z,39
2022-12-19T04:08:12.866Z,36
2022-12-19T04:09:15.681Z,40
2022-12-19T04:10:12.842Z,35
2022-12-19T04:11:12.850Z,35
2022-12-19T04:12:12.882Z,40
2022-12-19T04:13:12.832Z,39
2022-12-19T04:14:12.829Z,42
2022-12-19T04:15:12.834Z,37
2022-12-19T04:16:12.892Z,39
2022-12-19T04:17:12.867Z,36
2022-12-19T04:18:12.851Z,41
2022-12-19T04:19:12.838Z,34
2022-12-19T04:20:12.837Z,39
2022-12-19T04:21:12.967Z,38
2022-12-19T04:22:12.833Z,36
2022-12-19T04:23:12.837Z,39
2022-12-19T04:24:12.845Z,38
2022-12-19T04:25:12.834Z,39
2022-12-19T04:26:12.826Z,35
2022-12-19T04:27:12.860Z,40
2022-12-19T04:28:12.835Z,38
2022-12-19T04:29:12.831Z,41
2022-12-19T04:30:12.837Z,41
2022-12-19T04:31:12.888Z,43
2022-12-19T04:32:12.837Z,35
2022-12-19T04:33:12.834Z,33
2022-12-19T04:34:12.829Z,36
2022-12-19T04:35:12.850Z,39
2022-12-19T04:36:12.841Z,36
2022-12-19T04:37:12.844Z,41
2022-12-19T04:38:12.829Z,38
2022-12-19T04:39:12.835Z,38
2022-12-19T04:40:13.034Z,36
2022-12-19T04:41:12.935Z,40
2022-12-19T04:42:12.837Z,36
2022-12-19T04:43:12.829Z,38
2022-12-19T04:44:12.823Z,43
2022-12-19T04:45:12.837Z,40
2022-12-19T04:46:12.857Z,40
2022-12-19T04:47:12.835Z,39
2022-12-19T04:48:12.845Z,36
2022-12-19T04:49:12.819Z,36
2022-12-19T04:50:12.816Z,39
2022-12-19T04:51:12.821Z,35
2022-12-19T04:52:12.974Z,39
2022-12-19T04:53:12.880Z,40
2022-12-19T04:54:12.825Z,40
2022-12-19T04:55:12.830Z,36
2022-12-19T04:56:12.817Z,39
2022-12-19T04:57:12.842Z,36
2022-12-19T04:58:15.284Z,37
2022-12-19T04:59:12.839Z,36
2022-12-19T05:00:12.849Z,39
2022-12-19T05:01:12.851Z,38
2022-12-19T05:02:13.006Z,40
2022-12-19T05:03:12.868Z,40
2022-12-19T05:04:12.818Z,35
2022-12-19T05:05:12.832Z,40
2022-12-19T05:06:12.833Z,39
2022-12-19T05:07:12.834Z,35
2022-12-19T05:08:12.814Z,37
2022-12-19T05:09:12.823Z,38
2022-12-19T05:10:12.829Z,39
2022-12-19T05:11:17.488Z,37
2022-12-19T05:12:12.837Z,36
2022-12-19T05:13:12.831Z,36
2022-12-19T05:14:12.833Z,38
2022-12-19T05:15:12.820Z,38
2022-12-19T05:16:12.922Z,41
2022-12-19T05:17:12.836Z,36
2022-12-19T05:18:12.986Z,38
2022-12-19T05:19:12.825Z,38
2022-12-19T05:20:12.818Z,40
2022-12-19T05:21:12.822Z,35
2022-12-19T05:22:12.835Z,34
2022-12-19T05:23:16.886Z,37
2022-12-19T05:24:12.824Z,38
2022-12-19T05:25:12.827Z,36
2022-12-19T05:26:12.840Z,36
2022-12-19T05:27:12.837Z,36
2022-12-19T05:28:12.825Z,34
2022-12-19T05:29:12.824Z,39
2022-12-19T05:30:12.812Z,38
2022-12-19T05:31:12.884Z,37
2022-12-19T05:32:12.856Z,37
2022-12-19T05:33:12.838Z,37
2022-12-19T05:34:12.805Z,38
2022-12-19T05:35:12.815Z,32
2022-12-19T05:36:12.832Z,37
2022-12-19T05:37:12.826Z,37
2022-12-19T05:38:12.811Z,34
2022-12-19T05:39:12.812Z,33
2022-12-19T05:40:12.817Z,34
2022-12-19T05:41:12.829Z,42
2022-12-19T05:42:12.855Z,34
2022-12-19T05:43:12.815Z,37
2022-12-19T05:44:12.818Z,34
2022-12-19T05:45:12.817Z,35
2022-12-19T05:46:12.906Z,39
2022-12-19T05:47:12.810Z,40
2022-12-19T05:48:12.823Z,31
2022-12-19T05:49:12.812Z,35
2022-12-19T05:50:12.823Z,34
2022-12-19T05:51:12.818Z,35
2022-12-19T05:52:12.810Z,38
2022-12-19T05:53:12.807Z,36
2022-12-19T05:54:12.945Z,35
2022-12-19T05:55:12.801Z,34
2022-12-19T05:56:12.810Z,38
2022-12-19T05:57:12.822Z,38
2022-12-19T05:58:12.805Z,35
2022-12-19T05:59:12.804Z,33
2022-12-19T06:00:12.804Z,34
2022-12-19T06:01:12.837Z,36
2022-12-19T06:02:12.952Z,34
2022-12-19T06:03:12.963Z,37
2022-12-19T06:04:12.832Z,37
2022-12-19T06:05:12.813Z,35
2022-12-19T06:06:12.810Z,34
2022-12-19T06:07:16.589Z,31
2022-12-19T06:08:12.828Z,34
2022-12-19T06:09:12.798Z,36
2022-12-19T06:10:12.800Z,36
2022-12-19T06:11:12.851Z,37
2022-12-19T06:12:12.820Z,36
2022-12-19T06:13:12.800Z,37
2022-12-19T06:14:12.803Z,39
2022-12-19T06:15:12.807Z,36
2022-12-19T06:16:12.921Z,35
2022-12-19T06:17:12.821Z,36
2022-12-19T06:18:12.804Z,32
2022-12-19T06:19:12.861Z,33
2022-12-19T06:20:12.824Z,32
2022-12-19T06:21:12.799Z,37
2022-12-19T06:22:12.846Z,34
2022-12-19T06:23:12.804Z,31
2022-12-19T06:24:12.804Z,36
2022-12-19T06:25:12.929Z,38
2022-12-19T06:26:18.295Z,36
2022-12-19T06:27:12.808Z,40
2022-12-19T06:28:12.865Z,34
2022-12-19T06:29:12.817Z,35
2022-12-19T06:30:12.799Z,38
2022-12-19T06:31:12.931Z,35
2022-12-19T06:32:12.813Z,32
2022-12-19T06:33:12.793Z,34
2022-12-19T06:34:22.065Z,34
2022-12-19T06:35:12.803Z,35
2022-12-19T06:36:12.807Z,33
2022-12-19T06:37:12.815Z,36
2022-12-19T06:38:12.807Z,37
2022-12-19T06:39:12.803Z,35
2022-12-19T06:40:12.824Z,36
2022-12-19T06:41:12.799Z,38
2022-12-19T06:42:12.814Z,35
2022-12-19T06:43:12.793Z,35
2022-12-19T06:44:12.825Z,34
2022-12-19T06:45:12.792Z,32
2022-12-19T06:46:12.839Z,38
2022-12-19T06:47:12.805Z,33
2022-12-19T06:48:12.787Z,34
2022-12-19T06:49:12.814Z,35
2022-12-19T06:50:12.808Z,36
2022-12-19T06:51:12.801Z,38
2022-12-19T06:52:12.831Z,32
2022-12-19T06:53:12.806Z,34
2022-12-19T06:54:12.787Z,37
2022-12-19T06:55:12.787Z,34
2022-12-19T06:56:12.934Z,40
2022-12-19T06:57:12.813Z,36
2022-12-19T06:58:12.787Z,38
2022-12-19T06:59:12.794Z,32
2022-12-19T07:00:12.792Z,34
2022-12-19T07:01:12.849Z,31
2022-12-19T07:02:12.886Z,32
2022-12-19T07:03:12.863Z,36
2022-12-19T07:04:12.817Z,35
2022-12-19T07:05:12.784Z,36
2022-12-19T07:06:12.783Z,35
2022-12-19T07:07:12.849Z,35
2022-12-19T07:08:12.798Z,35
2022-12-19T07:09:12.785Z,34
2022-12-19T07:10:13.003Z,35
2022-12-19T07:11:12.795Z,35
2022-12-19T07:12:12.819Z,33
2022-12-19T07:13:12.788Z,33
2022-12-19T07:14:12.786Z,34
2022-12-19T07:15:12.815Z,33
2022-12-19T07:16:12.852Z,34
2022-12-19T07:17:12.815Z,43
2022-12-19T07:18:12.789Z,71
2022-12-19T07:19:12.795Z,49
2022-12-19T07:20:12.790Z,44
2022-12-19T07:21:12.815Z,81
2022-12-19T07:22:12.834Z,73
2022-12-19T07:23:12.790Z,46
2022-12-19T07:24:12.796Z,39
2022-12-19T07:25:12.790Z,35
2022-12-19T07:26:12.787Z,38
2022-12-19T07:27:12.936Z,34
2022-12-19T07:28:12.798Z,34
2022-12-19T07:29:12.807Z,34
2022-12-19T07:30:12.789Z,34
2022-12-19T07:31:12.950Z,33
2022-12-19T07:32:12.810Z,35
2022-12-19T07:33:16.960Z,35
2022-12-19T07:34:12.826Z,42
2022-12-19T07:35:12.781Z,40
2022-12-19T07:36:12.775Z,37
2022-12-19T07:37:12.823Z,36
2022-12-19T07:38:12.800Z,36
2022-12-19T07:39:12.786Z,38
2022-12-19T07:40:12.930Z,38
2022-12-19T07:41:12.783Z,37
2022-12-19T07:42:12.805Z,39
2022-12-19T07:43:12.792Z,38
2022-12-19T07:44:12.785Z,38
2022-12-19T07:45:12.802Z,34
2022-12-19T07:46:12.828Z,39
2022-12-19T07:47:12.847Z,36
2022-12-19T07:48:12.797Z,38
2022-12-19T07:49:13.685Z,33
2022-12-19T07:50:12.793Z,35
2022-12-19T07:51:12.797Z,38
2022-12-19T07:52:12.781Z,38
2022-12-19T07:53:12.801Z,43
2022-12-19T07:54:12.791Z,43
2022-12-19T07:55:12.788Z,47
2022-12-19T07:56:12.779Z,40
2022-12-19T07:57:12.785Z,38
2022-12-19T07:58:12.830Z,40
2022-12-19T07:59:12.857Z,36
2022-12-19T08:00:12.811Z,40
2022-12-19T08:01:12.869Z,35
2022-12-19T08:02:12.891Z,43
2022-12-19T08:03:12.858Z,40
2022-12-19T08:04:12.882Z,45
2022-12-19T08:05:12.785Z,42
2022-12-19T08:06:12.784Z,37
2022-12-19T08:07:12.834Z,39
2022-12-19T08:08:12.803Z,39
2022-12-19T08:09:12.781Z,39
2022-12-19T08:10:12.782Z,39
2022-12-19T08:11:12.781Z,43
2022-12-19T08:12:12.780Z,42
2022-12-19T08:13:12.796Z,37
2022-12-19T08:14:12.783Z,35
2022-12-19T08:15:12.839Z,40
2022-12-19T08:16:12.830Z,40
2022-12-19T08:17:21.241Z,39
2022-12-19T08:18:12.802Z,42
2022-12-19T08:19:12.804Z,42
2022-12-19T08:20:12.783Z,43
2022-12-19T08:21:12.784Z,40
2022-12-19T08:22:12.884Z,45
2022-12-19T08:23:12.804Z,44
2022-12-19T08:24:12.781Z,42
2022-12-19T08:25:12.800Z,42
2022-12-19T08:26:12.806Z,42
2022-12-19T08:27:12.794Z,40
2022-12-19T08:28:12.845Z,45
2022-12-19T08:29:12.814Z,47
2022-12-19T08:30:12.781Z,44
2022-12-19T08:31:12.907Z,44
2022-12-19T08:32:18.646Z,38
2022-12-19T08:33:12.798Z,37
2022-12-19T08:34:12.790Z,41
2022-12-19T08:35:12.786Z,39
2022-12-19T08:36:12.778Z,38
2022-12-19T08:37:12.811Z,40
2022-12-19T08:38:12.782Z,45
2022-12-19T08:39:12.789Z,42
2022-12-19T08:40:12.995Z,44
2022-12-19T08:41:12.785Z,42
2022-12-19T08:42:12.813Z,51
2022-12-19T08:43:12.780Z,50
2022-12-19T08:44:12.802Z,50
2022-12-19T08:45:12.787Z,47
2022-12-19T08:46:12.906Z,41
2022-12-19T08:47:12.781Z,46
2022-12-19T08:48:12.784Z,45
2022-12-19T08:49:12.791Z,45
2022-12-19T08:50:12.903Z,41
2022-12-19T08:51:12.795Z,40
2022-12-19T08:52:12.812Z,43
2022-12-19T08:53:12.782Z,44
2022-12-19T08:54:12.788Z,39
2022-12-19T08:55:12.774Z,44
2022-12-19T08:56:12.777Z,44
2022-12-19T08:57:12.805Z,43
2022-12-19T08:58:12.843Z,42
2022-12-19T08:59:12.797Z,42
2022-12-19T09:00:12.912Z,43
2022-12-19T09:01:12.857Z,48
2022-12-19T09:02:12.962Z,49
2022-12-19T09:03:12.948Z,50
2022-12-19T09:05:57.367Z,44
2022-12-19T09:06:05.439Z,45
2022-12-19T09:06:17.783Z,43
2022-12-19T09:07:15.764Z,47
2022-12-19T09:08:13.010Z,49
2022-12-19T09:09:12.788Z,46
2022-12-19T09:10:12.798Z,42
2022-12-19T09:11:12.771Z,44
2022-12-19T09:12:12.765Z,45
2022-12-19T09:13:12.775Z,48
2022-12-19T09:14:12.835Z,62
2022-12-19T09:15:12.784Z,56
2022-12-19T09:16:12.787Z,58
2022-12-19T09:17:12.837Z,59
2022-12-19T09:18:12.780Z,47
2022-12-19T09:19:12.804Z,42
2022-12-19T09:20:14.822Z,41
2022-12-19T09:21:12.780Z,46
2022-12-19T09:22:12.786Z,42
2022-12-19T09:23:12.788Z,45
2022-12-19T09:24:12.772Z,70
2022-12-19T09:25:12.770Z,65
2022-12-19T09:26:12.801Z,156
2022-12-19T09:27:12.772Z,61
2022-12-19T09:28:28.488Z,64
2022-12-19T09:29:20.923Z,48
2022-12-19T09:30:12.783Z,44
2022-12-19T09:31:12.925Z,47
2022-12-19T09:32:12.795Z,48
2022-12-19T09:33:12.788Z,48
2022-12-19T09:34:12.790Z,51
2022-12-19T09:35:13.531Z,52
2022-12-19T09:36:12.777Z,51
2022-12-19T09:37:16.771Z,50
2022-12-19T09:38:12.776Z,53
2022-12-19T09:39:12.799Z,50
2022-12-19T09:40:12.799Z,39
2022-12-19T09:41:12.781Z,40
2022-12-19T09:42:12.776Z,36
2022-12-19T09:43:12.772Z,37
2022-12-19T09:44:12.816Z,32
2022-12-19T09:45:17.994Z,32
2022-12-19T09:46:12.832Z,38
2022-12-19T09:47:12.766Z,34
2022-12-19T09:48:12.787Z,42
2022-12-19T09:49:12.790Z,45
2022-12-19T09:50:12.779Z,40
2022-12-19T09:51:12.763Z,42
2022-12-19T09:52:12.787Z,41
2022-12-19T09:53:12.766Z,45
2022-12-19T09:54:12.807Z,43
2022-12-19T09:55:13.777Z,38
2022-12-19T09:56:12.789Z,39
2022-12-19T09:57:12.788Z,42
2022-12-19T09:58:12.782Z,39
2022-12-19T09:59:12.796Z,43
2022-12-19T10:00:12.768Z,42
2022-12-19T10:01:12.830Z,40
2022-12-19T10:02:13.163Z,40
2022-12-19T10:03:13.046Z,34
2022-12-19T10:04:12.816Z,37
2022-12-19T10:05:44.770Z,38
2022-12-19T10:07:12.469Z,37
2022-12-19T10:07:28.195Z,30
2022-12-19T10:08:12.773Z,38
2022-12-19T10:11:13.273Z,34
2022-12-19T10:12:34.209Z,34
2022-12-19T10:12:39.324Z,30
2022-12-19T10:12:43.952Z,32
2022-12-19T10:13:13.608Z,36
2022-12-19T10:14:12.812Z,39
2022-12-19T10:15:12.785Z,34
2022-12-19T10:16:12.820Z,33
2022-12-19T10:17:28.353Z,34
2022-12-19T10:18:12.769Z,34
2022-12-19T10:19:12.806Z,32
2022-12-19T10:20:12.797Z,32
2022-12-19T10:21:12.780Z,35
2022-12-19T10:22:19.925Z,32
2022-12-19T10:23:12.793Z,31
2022-12-19T10:24:12.777Z,29
2022-12-19T10:25:12.781Z,30
2022-12-19T10:26:12.777Z,34
2022-12-19T10:27:12.790Z,35
2022-12-19T10:28:12.784Z,30
2022-12-19T10:29:12.809Z,36
2022-12-19T10:30:12.771Z,32
2022-12-19T10:31:21.055Z,34
2022-12-19T10:32:12.807Z,34
2022-12-19T10:33:16.233Z,34
2022-12-19T10:34:12.798Z,32
2022-12-19T10:35:12.789Z,32
2022-12-19T10:36:12.779Z,32
2022-12-19T10:37:23.108Z,33
2022-12-19T10:38:12.775Z,35
2022-12-19T10:39:12.780Z,33
2022-12-19T10:40:13.189Z,31
2022-12-19T10:41:12.782Z,33
2022-12-19T10:42:12.769Z,33
2022-12-19T10:43:16.353Z,35
2022-12-19T10:44:12.787Z,31
2022-12-19T10:45:12.779Z,32
2022-12-19T10:46:12.816Z,35
2022-12-19T10:47:12.792Z,37
2022-12-19T10:48:12.770Z,41
2022-12-19T10:49:12.798Z,39
2022-12-19T10:50:12.793Z,37
2022-12-19T10:51:12.816Z,35
2022-12-19T10:52:12.763Z,35
2022-12-19T10:53:12.774Z,33
2022-12-19T10:54:12.775Z,35
2022-12-19T10:55:12.792Z,35
2022-12-19T10:56:12.785Z,35
2022-12-19T10:57:12.777Z,32
2022-12-19T10:58:12.779Z,33
2022-12-19T10:59:12.809Z,31
2022-12-19T11:00:12.787Z,35
2022-12-19T11:01:12.774Z,30
2022-12-19T11:02:12.889Z,31
2022-12-19T11:03:12.935Z,29
2022-12-19T11:04:12.918Z,29
2022-12-19T11:05:12.897Z,31
2022-12-19T11:06:12.831Z,33
2022-12-19T11:07:12.768Z,32
2022-12-19T11:08:12.815Z,34
2022-12-19T11:09:12.774Z,34
2022-12-19T11:10:39.904Z,34
2022-12-19T11:13:24.988Z,32
2022-12-19T11:15:34.180Z,31
2022-12-19T11:18:32.509Z,30
2022-12-19T11:18:40.003Z,30
2022-12-19T11:19:14.373Z,29
2022-12-19T11:23:36.882Z,27
2022-12-19T11:27:03.851Z,31
2022-12-19T11:27:14.290Z,27
2022-12-19T11:29:15.352Z,28
2022-12-19T11:29:16.069Z,28
2022-12-19T11:29:27.155Z,28
2022-12-19T11:29:31.804Z,34
2022-12-19T11:29:36.669Z,31
2022-12-19T11:29:40.718Z,30
2022-12-19T11:30:08.656Z,30
2022-12-19T11:30:35.303Z,27
2022-12-19T11:30:41.364Z,34
2022-12-19T11:30:46.073Z,30
2022-12-19T11:30:46.599Z,31
2022-12-19T11:32:39.071Z,28
2022-12-19T11:33:12.944Z,28
2022-12-19T11:34:12.774Z,29
2022-12-19T11:35:12.897Z,28
2022-12-19T11:36:12.816Z,31
2022-12-19T11:37:12.770Z,30
2022-12-19T11:38:12.783Z,31
2022-12-19T11:39:12.794Z,30
2022-12-19T11:40:12.778Z,31
2022-12-19T11:41:12.767Z,30
2022-12-19T11:42:12.779Z,29
2022-12-19T11:43:44.302Z,26
2022-12-19T11:44:12.840Z,28
2022-12-19T11:45:12.769Z,28
2022-12-19T11:46:17.685Z,26
2022-12-19T11:47:12.785Z,32
2022-12-19T11:48:12.762Z,27
2022-12-19T11:49:12.777Z,30
2022-12-19T11:50:12.797Z,29
2022-12-19T11:51:12.763Z,29
2022-12-19T11:52:29.860Z,25
2022-12-19T11:53:18.589Z,26
2022-12-19T11:54:12.783Z,29
2022-12-19T11:55:12.774Z,26
2022-12-19T11:56:16.177Z,26
2022-12-19T11:57:12.766Z,26
2022-12-19T11:58:12.771Z,35
2022-12-19T11:59:12.769Z,31
2022-12-19T12:00:12.877Z,36
2022-12-19T12:01:12.768Z,32
2022-12-19T12:02:12.767Z,30
2022-12-19T12:03:12.834Z,29
2022-12-19T12:04:12.875Z,30
2022-12-19T12:05:12.816Z,30
2022-12-19T12:06:12.922Z,28
2022-12-19T12:07:33.220Z,30
2022-12-19T12:09:20.782Z,26
2022-12-19T12:11:53.172Z,27
2022-12-19T12:13:47.726Z,23
2022-12-19T12:14:17.487Z,24
2022-12-19T12:19:02.597Z,28
2022-12-19T12:23:27.172Z,24
2022-12-19T12:23:36.124Z,26
2022-12-19T12:24:24.037Z,26
2022-12-19T12:27:52.508Z,29
2022-12-19T12:31:00.548Z,24
2022-12-19T12:31:00.702Z,27
2022-12-19T12:31:13.348Z,24
2022-12-19T12:31:15.935Z,26
2022-12-19T12:31:16.923Z,28
2022-12-19T12:31:21.963Z,26
2022-12-19T12:31:28.208Z,27
2022-12-19T12:31:39.010Z,25
2022-12-19T12:31:39.144Z,28
2022-12-19T12:31:41.879Z,29
2022-12-19T12:31:43.272Z,24
2022-12-19T12:31:49.207Z,26
2022-12-19T12:31:49.436Z,28
2022-12-19T12:31:53.476Z,27
2022-12-19T12:35:33.634Z,25
2022-12-19T12:35:34.265Z,26
2022-12-19T12:35:48.803Z,23
2022-12-19T12:35:51.343Z,25
2022-12-19T12:38:13.614Z,25
2022-12-19T12:38:22.814Z,26
2022-12-19T12:39:16.089Z,28
2022-12-19T12:40:12.773Z,26
2022-12-19T12:41:12.773Z,28
2022-12-19T12:42:12.756Z,29
2022-12-19T12:43:12.808Z,26
2022-12-19T12:44:12.823Z,29
2022-12-19T12:45:12.759Z,27
2022-12-19T12:46:12.884Z,29
2022-12-19T12:47:12.769Z,28
2022-12-19T12:48:12.764Z,28
2022-12-19T12:49:12.787Z,28
2022-12-19T12:50:12.783Z,28
2022-12-19T12:51:12.768Z,30
2022-12-19T12:52:12.841Z,30
2022-12-19T12:53:12.858Z,28
2022-12-19T12:54:12.765Z,27
2022-12-19T12:55:12.775Z,30
2022-12-19T12:56:12.767Z,27
2022-12-19T12:57:12.756Z,26
2022-12-19T12:58:15.332Z,25
2022-12-19T12:59:12.811Z,28
2022-12-19T13:00:12.775Z,25
2022-12-19T13:01:12.811Z,27
2022-12-19T13:02:13.008Z,27
2022-12-19T13:03:12.988Z,27
2022-12-19T13:04:12.801Z,25
2022-12-19T13:05:12.781Z,27
2022-12-19T13:06:12.757Z,27
2022-12-19T13:07:12.759Z,28
2022-12-19T13:08:12.783Z,27
2022-12-19T13:09:12.764Z,27
2022-12-19T13:10:12.763Z,27
2022-12-19T13:11:12.751Z,28
2022-12-19T13:12:12.757Z,28
2022-12-19T13:13:15.669Z,28
2022-12-19T13:14:12.788Z,27
2022-12-19T13:15:12.766Z,32
2022-12-19T13:16:12.839Z,26
2022-12-19T13:17:12.815Z,27
2022-12-19T13:18:12.757Z,23
2022-12-19T13:19:18.465Z,26
2022-12-19T13:20:12.781Z,24
2022-12-19T13:21:12.756Z,28
2022-12-19T13:22:12.759Z,27
2022-12-19T13:23:12.771Z,26
2022-12-19T13:24:16.012Z,23
2022-12-19T13:25:12.764Z,24
2022-12-19T13:26:18.058Z,22
2022-12-19T13:27:12.754Z,24
2022-12-19T13:28:12.752Z,22
2022-12-19T13:29:12.774Z,23
2022-12-19T13:30:12.759Z,26
2022-12-19T13:31:21.414Z,25
2022-12-19T13:32:12.750Z,25
2022-12-19T13:33:12.751Z,23
2022-12-19T13:34:12.780Z,25
2022-12-19T13:35:57.638Z,24
2022-12-19T13:39:38.973Z,26
2022-12-19T13:39:50.481Z,28
2022-12-19T13:39:55.427Z,30
2022-12-19T13:40:00.874Z,29
2022-12-19T13:40:16.128Z,25
2022-12-19T13:41:12.759Z,29
2022-12-19T13:42:12.762Z,31
2022-12-19T13:43:12.754Z,30
2022-12-19T13:44:12.785Z,24
2022-12-19T13:45:12.752Z,29
2022-12-19T13:46:12.770Z,25
2022-12-19T13:47:12.751Z,24
2022-12-19T13:48:12.752Z,25
2022-12-19T13:49:12.834Z,23
2022-12-19T13:50:12.796Z,21
2022-12-19T13:51:12.750Z,20
2022-12-19T13:52:12.759Z,23
2022-12-19T13:53:12.778Z,19
2022-12-19T13:54:12.764Z,26
2022-12-19T13:55:12.748Z,25
2022-12-19T13:56:12.769Z,22
2022-12-19T13:57:12.753Z,20
2022-12-19T13:58:12.757Z,20
2022-12-19T13:59:12.765Z,20
2022-12-19T14:00:12.750Z,19
2022-12-19T14:01:20.876Z,21
2022-12-19T14:02:13.072Z,19
2022-12-19T14:03:12.967Z,21
2022-12-19T14:04:12.843Z,20
2022-12-19T14:05:12.762Z,19
2022-12-19T14:06:18.151Z,23
2022-12-19T14:07:12.763Z,20
2022-12-19T14:08:12.755Z,19
2022-12-19T14:10:19.898Z,17
2022-12-19T14:11:32.485Z,20
2022-12-19T14:11:44.208Z,20
2022-12-19T14:13:51.107Z,18
2022-12-19T14:14:00.337Z,16
2022-12-19T14:14:18.938Z,17
2022-12-19T14:15:13.964Z,19
2022-12-19T14:16:12.803Z,20
2022-12-19T14:17:12.750Z,17
2022-12-19T14:18:45.355Z,19
2022-12-19T14:19:12.772Z,18